Wetterdaten: Woche 27.04.26 - 03.05.26 (KW18)
Datum Zeit Temperatur Temp. +5 cm Temp. -10 cm Feuchte A. Luftdruck Regen Wind Richtung Zeit Sonne UV-I Solarstrahlg Taupunkt Windchill Windböen
27.04.2026 00:00 3,5 °C -1,0 °C 10,6 °C 76 % 1025,5 hPa 0,0 l/m² 0,0 km/h (0 Bft) N 0,00 h 0,0 UV-I 0 W/m² -0,3 °C 3,5 °C 0,3 km/h (0 Bft)
27.04.2026 01:00 2,5 °C -1,2 °C 10,5 °C 79 % 1025,6 hPa 0,0 l/m² 0,0 km/h (0 Bft) N 0,00 h 0,0 UV-I 0 W/m² -0,8 °C 2,5 °C 0,2 km/h (0 Bft)
27.04.2026 02:00 1,8 °C -2,2 °C 10,0 °C 81 % 1025,6 hPa 0,0 l/m² 0,0 km/h (0 Bft) N 0,00 h 0,0 UV-I 0 W/m² -1,1 °C 1,8 °C 0,0 km/h (0 Bft)
27.04.2026 03:00 1,3 °C -2,6 °C 10,0 °C 82 % 1025,5 hPa 0,0 l/m² 0,0 km/h (0 Bft) N 0,00 h 0,0 UV-I 0 W/m² -1,4 °C 1,3 °C 0,1 km/h (0 Bft)
27.04.2026 04:00 0,5 °C -2,8 °C 9,6 °C 84 % 1025,4 hPa 0,0 l/m² 0,0 km/h (0 Bft) N 0,00 h 0,0 UV-I 0 W/m² -1,9 °C 0,5 °C 0,1 km/h (0 Bft)
27.04.2026 05:00 -0,0 °C -3,5 °C 9,4 °C 85 % 1025,3 hPa 0,0 l/m² 0,0 km/h (0 Bft) N 0,00 h 0,0 UV-I 5 W/m² -2,2 °C -0,0 °C 0,2 km/h (0 Bft)
27.04.2026 06:00 0,1 °C -2,6 °C 9,4 °C 86 % 1025,4 hPa 0,0 l/m² 0,0 km/h (0 Bft) N 0,90 h 0,5 UV-I 61 W/m² -2,0 °C 0,1 °C 0,3 km/h (0 Bft)
27.04.2026 07:00 2,9 °C 0,4 °C 9,3 °C 85 % 1025,7 hPa 0,0 l/m² 0,1 km/h (0 Bft) N 0,00 h 0,6 UV-I 87 W/m² 0,6 °C 2,9 °C 1,3 km/h (1 Bft)
27.04.2026 08:00 7,5 °C 5,9 °C 9,0 °C 71 % 1025,7 hPa 0,0 l/m² 0,4 km/h (0 Bft) N 0,93 h 1,0 UV-I 409 W/m² 2,6 °C 7,5 °C 1,7 km/h (1 Bft)
27.04.2026 09:00 11,5 °C 11,6 °C 9,1 °C 55 % 1025,7 hPa 0,0 l/m² 2,4 km/h (1 Bft) N 1,00 h 1,6 UV-I 579 W/m² 2,7 °C 11,5 °C 4,9 km/h (1 Bft)
27.04.2026 10:00 14,3 °C 16,2 °C 9,3 °C 50 % 1025,4 hPa 0,0 l/m² 4,2 km/h (1 Bft) N 1,00 h 2,4 UV-I 701 W/m² 3,9 °C 14,3 °C 8,4 km/h (2 Bft)
27.04.2026 11:00 15,6 °C 21,9 °C 9,5 °C 45 % 1025,0 hPa 0,0 l/m² 5,3 km/h (1 Bft) N 1,00 h 3,1 UV-I 760 W/m² 3,6 °C 15,6 °C 10,1 km/h (2 Bft)
27.04.2026 12:00 16,3 °C 23,6 °C 10,0 °C 44 % 1024,4 hPa 0,0 l/m² 6,0 km/h (2 Bft) N-NO 1,00 h 3,5 UV-I 814 W/m² 3,9 °C 16,3 °C 11,1 km/h (2 Bft)
27.04.2026 13:00 16,6 °C 25,5 °C 10,5 °C 43 % 1024,0 hPa 0,0 l/m² 5,0 km/h (1 Bft) N-NW 1,00 h 3,2 UV-I 738 W/m² 4,0 °C 16,6 °C 9,8 km/h (2 Bft)
27.04.2026 14:00 16,7 °C 24,4 °C 10,9 °C 43 % 1023,7 hPa 0,0 l/m² 5,0 km/h (1 Bft) NW 1,00 h 2,8 UV-I 664 W/m² 4,2 °C 16,7 °C 9,9 km/h (2 Bft)
27.04.2026 15:00 17,3 °C 27,7 °C 11,1 °C 43 % 1023,3 hPa 0,0 l/m² 5,6 km/h (2 Bft) N-NW 1,00 h 2,5 UV-I 698 W/m² 4,6 °C 17,3 °C 11,0 km/h (2 Bft)
27.04.2026 16:00 17,1 °C 24,6 °C 11,4 °C 41 % 1022,9 hPa 0,0 l/m² 5,3 km/h (1 Bft) N-NO 1,00 h 1,6 UV-I 498 W/m² 3,9 °C 17,1 °C 9,8 km/h (2 Bft)
27.04.2026 17:00 16,9 °C 19,6 °C 11,7 °C 43 % 1022,5 hPa 0,0 l/m² 5,2 km/h (1 Bft) N-NO 1,00 h 1,0 UV-I 430 W/m² 4,0 °C 16,9 °C 9,9 km/h (2 Bft)
27.04.2026 18:00 16,3 °C 15,9 °C 11,7 °C 42 % 1022,3 hPa 0,0 l/m² 4,7 km/h (1 Bft) NO 0,23 h 0,6 UV-I 149 W/m² 3,5 °C 16,3 °C 9,1 km/h (2 Bft)
27.04.2026 19:00 15,4 °C 13,9 °C 11,7 °C 46 % 1022,1 hPa 0,0 l/m² 4,0 km/h (1 Bft) N-NW 0,80 h 0,0 UV-I 97 W/m² 3,8 °C 15,4 °C 7,3 km/h (2 Bft)
27.04.2026 20:00 14,3 °C 9,9 °C 11,5 °C 50 % 1022,3 hPa 0,0 l/m² 2,5 km/h (1 Bft) N-NO 0,30 h 0,0 UV-I 30 W/m² 4,0 °C 14,3 °C 5,6 km/h (2 Bft)
27.04.2026 21:00 12,5 °C 7,9 °C 11,2 °C 57 % 1022,7 hPa 0,0 l/m² 2,7 km/h (1 Bft) O 0,00 h 0,0 UV-I 0 W/m² 4,1 °C 12,5 °C 5,5 km/h (2 Bft)
27.04.2026 22:00 9,8 °C 3,4 °C 11,1 °C 61 % 1022,9 hPa 0,0 l/m² 0,9 km/h (0 Bft) O 0,00 h 0,0 UV-I 0 W/m² 2,7 °C 9,8 °C 2,9 km/h (1 Bft)
27.04.2026 23:00 8,5 °C 2,9 °C 11,1 °C 64 % 1023,0 hPa 0,0 l/m² 1,5 km/h (1 Bft) O-SO 0,00 h 0,0 UV-I 0 W/m² 2,1 °C 8,5 °C 3,5 km/h (1 Bft)
28.04.2026 00:00 8,7 °C 3,9 °C 10,7 °C 61 % 1023,2 hPa 0,0 l/m² 4,0 km/h (1 Bft) O-SO 0,00 h 0,0 UV-I 0 W/m² 1,5 °C 8,5 °C 7,7 km/h (2 Bft)
28.04.2026 01:00 8,0 °C 4,2 °C 10,6 °C 63 % 1023,5 hPa 0,0 l/m² 5,2 km/h (1 Bft) O-SO 0,00 h 0,0 UV-I 0 W/m² 1,3 °C 7,5 °C 9,6 km/h (2 Bft)
28.04.2026 02:00 6,9 °C 2,8 °C 10,6 °C 64 % 1023,7 hPa 0,0 l/m² 4,1 km/h (1 Bft) SO 0,00 h 0,0 UV-I 0 W/m² 0,6 °C 6,7 °C 7,9 km/h (2 Bft)
28.04.2026 03:00 5,7 °C 0,4 °C 10,3 °C 65 % 1024,0 hPa 0,0 l/m² 2,1 km/h (1 Bft) SO 0,00 h 0,0 UV-I 0 W/m² -0,4 °C 5,7 °C 4,7 km/h (1 Bft)
28.04.2026 04:00 4,2 °C -1,2 °C 10,0 °C 70 % 1024,3 hPa 0,0 l/m² 1,5 km/h (1 Bft) O-SO 0,00 h 0,0 UV-I 0 W/m² -0,8 °C 4,2 °C 3,6 km/h (1 Bft)
28.04.2026 05:00 3,5 °C -1,4 °C 10,0 °C 71 % 1024,4 hPa 0,0 l/m² 2,2 km/h (1 Bft) O-SO 0,00 h 0,0 UV-I 8 W/m² -1,2 °C 3,4 °C 5,1 km/h (1 Bft)
28.04.2026 06:00 4,3 °C 1,4 °C 9,6 °C 67 % 1024,5 hPa 0,0 l/m² 4,6 km/h (1 Bft) O-SO 1,00 h 0,0 UV-I 75 W/m² -1,3 °C 3,7 °C 9,9 km/h (2 Bft)
28.04.2026 07:00 6,2 °C 4,8 °C 9,4 °C 61 % 1025,1 hPa 0,0 l/m² 7,4 km/h (2 Bft) O-SO 0,07 h 0,5 UV-I 107 W/m² -0,8 °C 4,7 °C 15,0 km/h (3 Bft)
28.04.2026 08:00 7,9 °C 7,4 °C 9,4 °C 57 % 1025,3 hPa 0,0 l/m² 9,1 km/h (2 Bft) S-SO 0,90 h 0,9 UV-I 387 W/m² -0,1 °C 6,4 °C 19,2 km/h (3 Bft)
28.04.2026 09:00 9,8 °C 10,1 °C 9,4 °C 54 % 1025,4 hPa 0,0 l/m² 9,4 km/h (2 Bft) S-SO 1,00 h 1,5 UV-I 524 W/m² 0,8 °C 8,7 °C 18,6 km/h (3 Bft)
28.04.2026 10:00 11,7 °C 13,4 °C 9,4 °C 50 % 1025,6 hPa 0,0 l/m² 11,2 km/h (2 Bft) SO 1,00 h 2,3 UV-I 737 W/m² 1,6 °C 11,7 °C 21,2 km/h (4 Bft)
28.04.2026 11:00 13,6 °C 19,7 °C 9,9 °C 45 % 1025,7 hPa 0,0 l/m² 10,6 km/h (2 Bft) O-SO 1,00 h 3,1 UV-I 795 W/m² 1,8 °C 13,6 °C 20,4 km/h (4 Bft)
28.04.2026 12:00 14,7 °C 21,5 °C 10,4 °C 42 % 1025,5 hPa 0,0 l/m² 10,0 km/h (2 Bft) O-SO 1,00 h 3,5 UV-I 834 W/m² 2,0 °C 14,7 °C 18,2 km/h (3 Bft)
28.04.2026 13:00 15,6 °C 25,5 °C 10,7 °C 38 % 1025,3 hPa 0,0 l/m² 9,1 km/h (2 Bft) O-SO 1,00 h 3,7 UV-I 879 W/m² 1,3 °C 15,6 °C 18,0 km/h (3 Bft)
28.04.2026 14:00 16,3 °C 24,6 °C 11,1 °C 33 % 1025,1 hPa 0,0 l/m² 11,0 km/h (2 Bft) O-SO 1,00 h 3,5 UV-I 856 W/m² 0,1 °C 16,3 °C 20,9 km/h (4 Bft)
28.04.2026 15:00 16,5 °C 27,5 °C 11,2 °C 32 % 1025,0 hPa 0,0 l/m² 11,7 km/h (2 Bft) O 1,00 h 2,7 UV-I 746 W/m² -0,5 °C 16,5 °C 20,4 km/h (4 Bft)
28.04.2026 16:00 16,5 °C 27,3 °C 11,7 °C 30 % 1024,7 hPa 0,0 l/m² 10,9 km/h (2 Bft) O 1,00 h 1,9 UV-I 616 W/m² -1,1 °C 16,5 °C 19,5 km/h (3 Bft)
28.04.2026 17:00 16,1 °C 16,9 °C 11,7 °C 30 % 1024,4 hPa 0,0 l/m² 11,9 km/h (2 Bft) O 1,00 h 1,1 UV-I 467 W/m² -1,5 °C 16,1 °C 20,4 km/h (4 Bft)
28.04.2026 18:00 15,2 °C 15,7 °C 11,7 °C 30 % 1024,6 hPa 0,0 l/m² 10,6 km/h (2 Bft) O-SO 0,30 h 0,6 UV-I 151 W/m² -2,0 °C 15,2 °C 18,7 km/h (3 Bft)
28.04.2026 19:00 14,1 °C 13,1 °C 11,7 °C 33 % 1024,8 hPa 0,0 l/m² 6,7 km/h (2 Bft) O-SO 0,87 h 0,0 UV-I 98 W/m² -2,1 °C 14,1 °C 13,4 km/h (3 Bft)
28.04.2026 20:00 11,6 °C 5,8 °C 11,4 °C 41 % 1025,4 hPa 0,0 l/m² 2,4 km/h (1 Bft) O-SO 0,33 h 0,0 UV-I 32 W/m² -1,4 °C 11,6 °C 6,0 km/h (2 Bft)
28.04.2026 21:00 8,1 °C 1,0 °C 11,1 °C 54 % 1025,9 hPa 0,0 l/m² 0,0 km/h (0 Bft) N 0,00 h 0,0 UV-I 0 W/m² -0,7 °C 8,1 °C 0,3 km/h (0 Bft)
28.04.2026 22:00 6,1 °C -0,4 °C 11,1 °C 61 % 1026,2 hPa 0,0 l/m² 0,0 km/h (0 Bft) N 0,00 h 0,0 UV-I 0 W/m² -0,9 °C 6,1 °C 0,0 km/h (0 Bft)
28.04.2026 23:00 4,7 °C -0,8 °C 10,6 °C 65 % 1026,5 hPa 0,0 l/m² 1,1 km/h (1 Bft) O-SO 0,00 h 0,0 UV-I 0 W/m² -1,4 °C 4,5 °C 2,0 km/h (1 Bft)
29.04.2026 00:00 6,3 °C 1,2 °C 10,6 °C 57 % 1027,1 hPa 0,0 l/m² 3,4 km/h (1 Bft) SO 0,00 h 0,0 UV-I 0 W/m² -1,6 °C 6,1 °C 7,8 km/h (2 Bft)
29.04.2026 01:00 5,2 °C -0,9 °C 10,3 °C 60 % 1027,4 hPa 0,0 l/m² 1,9 km/h (1 Bft) O-SO 0,00 h 0,0 UV-I 0 W/m² -2,0 °C 5,2 °C 4,5 km/h (1 Bft)
29.04.2026 02:00 3,8 °C -2,1 °C 10,0 °C 65 % 1027,8 hPa 0,0 l/m² 1,4 km/h (1 Bft) O-SO 0,00 h 0,0 UV-I 0 W/m² -2,1 °C 3,8 °C 3,0 km/h (1 Bft)
29.04.2026 03:00 2,6 °C -2,8 °C 9,9 °C 70 % 1027,8 hPa 0,0 l/m² 0,2 km/h (0 Bft) O-SO 0,00 h 0,0 UV-I 0 W/m² -2,2 °C 2,6 °C 0,9 km/h (0 Bft)
29.04.2026 04:00 2,7 °C -2,5 °C 9,6 °C 71 % 1027,9 hPa 0,0 l/m² 3,3 km/h (1 Bft) O-SO 0,00 h 0,0 UV-I 0 W/m² -2,2 °C 2,3 °C 6,6 km/h (2 Bft)
29.04.2026 05:00 3,4 °C -0,9 °C 9,4 °C 65 % 1028,2 hPa 0,0 l/m² 4,4 km/h (1 Bft) O-SO 0,03 h 0,0 UV-I 10 W/m² -2,5 °C 2,8 °C 9,1 km/h (2 Bft)
29.04.2026 06:00 3,5 °C 0,3 °C 9,4 °C 66 % 1028,5 hPa 0,0 l/m² 4,4 km/h (1 Bft) SO 0,73 h 0,0 UV-I 62 W/m² -2,2 °C 3,0 °C 9,3 km/h (2 Bft)
29.04.2026 07:00 5,4 °C 3,9 °C 9,4 °C 61 % 1029,1 hPa 0,0 l/m² 5,4 km/h (2 Bft) SO 0,00 h 0,6 UV-I 80 W/m² -1,4 °C 4,6 °C 12,2 km/h (2 Bft)
29.04.2026 08:00 7,2 °C 6,0 °C 9,2 °C 56 % 1029,9 hPa 0,0 l/m² 9,1 km/h (2 Bft) S-SO 0,93 h 1,0 UV-I 411 W/m² -1,0 °C 5,6 °C 18,0 km/h (3 Bft)
29.04.2026 09:00 9,8 °C 9,1 °C 9,2 °C 50 % 1030,5 hPa 0,0 l/m² 10,0 km/h (2 Bft) S-SO 1,00 h 1,6 UV-I 585 W/m² -0,2 °C 9,0 °C 19,8 km/h (4 Bft)
29.04.2026 10:00 11,9 °C 13,1 °C 9,4 °C 43 % 1030,8 hPa 0,0 l/m² 10,4 km/h (2 Bft) O-SO 1,00 h 2,4 UV-I 741 W/m² -0,2 °C 11,9 °C 20,9 km/h (4 Bft)
29.04.2026 11:00 12,8 °C 18,8 °C 9,6 °C 39 % 1030,8 hPa 0,0 l/m² 11,6 km/h (2 Bft) S-SO 1,00 h 3,1 UV-I 839 W/m² -1,0 °C 12,8 °C 21,7 km/h (4 Bft)
29.04.2026 12:00 13,7 °C 22,2 °C 10,0 °C 39 % 1030,7 hPa 0,0 l/m² 8,5 km/h (2 Bft) SO 1,00 h 3,7 UV-I 917 W/m² 0,1 °C 13,7 °C 17,1 km/h (3 Bft)
29.04.2026 13:00 14,0 °C 25,2 °C 10,5 °C 39 % 1030,5 hPa 0,0 l/m² 8,7 km/h (2 Bft) O-SO 1,00 h 3,9 UV-I 917 W/m² 0,2 °C 14,0 °C 17,7 km/h (3 Bft)
29.04.2026 14:00 14,7 °C 23,6 °C 10,9 °C 37 % 1030,2 hPa 0,0 l/m² 9,5 km/h (2 Bft) SO 1,00 h 3,5 UV-I 877 W/m² 0,2 °C 14,7 °C 19,2 km/h (3 Bft)
29.04.2026 15:00 15,0 °C 26,3 °C 11,1 °C 35 % 1030,1 hPa 0,0 l/m² 12,0 km/h (2 Bft) O 1,00 h 2,8 UV-I 768 W/m² -0,2 °C 15,0 °C 20,9 km/h (4 Bft)
29.04.2026 16:00 15,2 °C 26,5 °C 11,1 °C 34 % 1030,2 hPa 0,0 l/m² 11,0 km/h (2 Bft) O-SO 1,00 h 1,9 UV-I 636 W/m² -0,6 °C 15,2 °C 20,4 km/h (4 Bft)
29.04.2026 17:00 14,7 °C 15,7 °C 11,5 °C 34 % 1030,1 hPa 0,0 l/m² 9,3 km/h (2 Bft) S-SO 1,00 h 1,1 UV-I 497 W/m² -0,9 °C 14,7 °C 18,5 km/h (3 Bft)
29.04.2026 18:00 14,0 °C 14,9 °C 11,3 °C 36 % 1030,2 hPa 0,0 l/m² 8,1 km/h (2 Bft) O-SO 0,53 h 0,6 UV-I 181 W/m² -1,0 °C 14,0 °C 16,0 km/h (3 Bft)
29.04.2026 19:00 12,9 °C 12,4 °C 11,1 °C 37 % 1030,4 hPa 0,0 l/m² 7,0 km/h (2 Bft) SO 0,93 h 0,0 UV-I 127 W/m² -1,4 °C 12,9 °C 14,8 km/h (3 Bft)
29.04.2026 20:00 10,3 °C 4,4 °C 11,1 °C 45 % 1031,0 hPa 0,0 l/m² 1,5 km/h (1 Bft) SO 0,33 h 0,0 UV-I 36 W/m² -1,3 °C 10,3 °C 4,4 km/h (1 Bft)
29.04.2026 21:00 6,9 °C 0,1 °C 11,0 °C 58 % 1031,5 hPa 0,0 l/m² 0,0 km/h (0 Bft) N 0,00 h 0,0 UV-I 0 W/m² -0,8 °C 6,9 °C 0,0 km/h (0 Bft)
29.04.2026 22:00 4,9 °C -1,4 °C 10,6 °C 64 % 1031,9 hPa 0,0 l/m² 0,0 km/h (0 Bft) N 0,00 h 0,0 UV-I 0 W/m² -1,4 °C 4,9 °C 0,0 km/h (0 Bft)
29.04.2026 23:00 3,5 °C -2,1 °C 10,6 °C 71 % 1032,3 hPa 0,0 l/m² 0,0 km/h (0 Bft) N 0,00 h 0,0 UV-I 0 W/m² -1,3 °C 3,5 °C 0,0 km/h (0 Bft)
30.04.2026 00:00 2,4 °C -2,9 °C 10,2 °C 74 % 1032,6 hPa 0,0 l/m² 0,0 km/h (0 Bft) N 0,00 h 0,0 UV-I 0 W/m² -1,8 °C 2,4 °C 0,0 km/h (0 Bft)
30.04.2026 01:00 1,3 °C -3,6 °C 10,0 °C 76 % 1032,7 hPa 0,0 l/m² 0,0 km/h (0 Bft) N 0,00 h 0,0 UV-I 0 W/m² -2,5 °C 1,3 °C 0,0 km/h (0 Bft)
30.04.2026 02:00 0,4 °C -4,1 °C 9,8 °C 79 % 1032,7 hPa 0,0 l/m² 0,0 km/h (0 Bft) N 0,00 h 0,0 UV-I 0 W/m² -2,9 °C 0,4 °C 0,0 km/h (0 Bft)
30.04.2026 03:00 -0,2 °C -4,4 °C 9,4 °C 81 % 1033,1 hPa 0,0 l/m² 0,0 km/h (0 Bft) N 0,00 h 0,0 UV-I 0 W/m² -3,1 °C -0,2 °C 0,0 km/h (0 Bft)
30.04.2026 04:00 -0,7 °C -4,9 °C 9,4 °C 82 % 1033,4 hPa 0,0 l/m² 0,0 km/h (0 Bft) N 0,00 h 0,0 UV-I 0 W/m² -3,3 °C -0,7 °C 0,0 km/h (0 Bft)
30.04.2026 05:00 -1,0 °C -5,0 °C 9,1 °C 84 % 1033,5 hPa 0,0 l/m² 0,0 km/h (0 Bft) N 0,07 h 0,0 UV-I 13 W/m² -3,4 °C -1,0 °C 0,0 km/h (0 Bft)
30.04.2026 06:00 -0,6 °C -3,8 °C 8,9 °C 84 % 1033,9 hPa 0,0 l/m² 0,0 km/h (0 Bft) N 0,77 h 0,5 UV-I 68 W/m² -3,0 °C -0,6 °C 0,2 km/h (0 Bft)
30.04.2026 07:00 2,3 °C -0,4 °C 8,9 °C 78 % 1034,1 hPa 0,0 l/m² 0,0 km/h (0 Bft) N 0,00 h 0,6 UV-I 92 W/m² -1,2 °C 2,3 °C 0,3 km/h (0 Bft)
30.04.2026 08:00 6,8 °C 4,3 °C 8,9 °C 58 % 1034,2 hPa 0,0 l/m² 0,1 km/h (0 Bft) N 1,00 h 1,0 UV-I 423 W/m² -0,9 °C 6,8 °C 1,2 km/h (1 Bft)
30.04.2026 09:00 11,0 °C 9,9 °C 8,9 °C 45 % 1034,0 hPa 0,0 l/m² 0,9 km/h (0 Bft) O-NO 1,00 h 1,7 UV-I 598 W/m² -0,4 °C 11,0 °C 3,1 km/h (1 Bft)
30.04.2026 10:00 12,8 °C 14,6 °C 8,9 °C 40 % 1033,7 hPa 0,0 l/m² 2,4 km/h (1 Bft) W-SW 1,00 h 2,6 UV-I 726 W/m² -0,5 °C 12,8 °C 5,3 km/h (1 Bft)
30.04.2026 11:00 14,4 °C 21,3 °C 9,3 °C 38 % 1033,3 hPa 0,0 l/m² 3,7 km/h (1 Bft) O-SO 1,00 h 3,5 UV-I 834 W/m² 0,2 °C 14,4 °C 7,3 km/h (2 Bft)
30.04.2026 12:00 15,6 °C 24,7 °C 9,8 °C 38 % 1032,9 hPa 0,0 l/m² 4,0 km/h (1 Bft) O-SO 1,00 h 4,0 UV-I 925 W/m² 1,3 °C 15,6 °C 9,1 km/h (2 Bft)
30.04.2026 13:00 16,5 °C 28,2 °C 10,4 °C 39 % 1032,3 hPa 0,0 l/m² 4,6 km/h (1 Bft) S-SO 1,00 h 4,1 UV-I 846 W/m² 2,6 °C 16,5 °C 9,8 km/h (2 Bft)
30.04.2026 14:00 17,6 °C 27,7 °C 10,8 °C 39 % 1031,8 hPa 0,0 l/m² 5,9 km/h (2 Bft) O-SO 1,00 h 3,7 UV-I 821 W/m² 3,6 °C 17,6 °C 11,9 km/h (2 Bft)
30.04.2026 15:00 18,3 °C 31,3 °C 11,1 °C 40 % 1031,2 hPa 0,0 l/m² 5,1 km/h (1 Bft) O-SO 1,00 h 2,8 UV-I 735 W/m² 4,3 °C 18,3 °C 10,4 km/h (2 Bft)
30.04.2026 16:00 18,5 °C 30,6 °C 11,4 °C 39 % 1030,7 hPa 0,0 l/m² 4,5 km/h (1 Bft) O-SO 1,00 h 1,9 UV-I 596 W/m² 4,4 °C 18,5 °C 9,4 km/h (2 Bft)
30.04.2026 17:00 18,6 °C 19,6 °C 11,7 °C 40 % 1030,2 hPa 0,0 l/m² 4,5 km/h (1 Bft) SO 1,00 h 1,1 UV-I 483 W/m² 4,8 °C 18,6 °C 9,3 km/h (2 Bft)
30.04.2026 18:00 18,1 °C 18,6 °C 11,7 °C 42 % 1030,0 hPa 0,0 l/m² 3,5 km/h (1 Bft) O-SO 0,37 h 0,6 UV-I 158 W/m² 4,8 °C 18,1 °C 7,8 km/h (2 Bft)
30.04.2026 19:00 17,5 °C 16,7 °C 11,7 °C 43 % 1029,9 hPa 0,0 l/m² 4,3 km/h (1 Bft) O 0,87 h 0,0 UV-I 104 W/m² 4,9 °C 17,5 °C 8,1 km/h (2 Bft)
30.04.2026 20:00 14,6 °C 8,0 °C 11,6 °C 54 % 1029,8 hPa 0,0 l/m² 0,9 km/h (0 Bft) O 0,37 h 0,0 UV-I 36 W/m² 5,2 °C 14,6 °C 2,0 km/h (1 Bft)
30.04.2026 21:00 11,4 °C 4,9 °C 11,1 °C 61 % 1030,0 hPa 0,0 l/m² 0,0 km/h (0 Bft) N 0,00 h 0,0 UV-I 0 W/m² 4,2 °C 11,4 °C 0,1 km/h (0 Bft)
30.04.2026 22:00 9,2 °C 3,2 °C 11,1 °C 67 % 1030,2 hPa 0,0 l/m² 0,0 km/h (0 Bft) N 0,00 h 0,0 UV-I 0 W/m² 3,4 °C 9,2 °C 0,0 km/h (0 Bft)
30.04.2026 23:00 7,8 °C 2,3 °C 11,0 °C 72 % 1030,3 hPa 0,0 l/m² 0,0 km/h (0 Bft) N 0,00 h 0,0 UV-I 0 W/m² 3,0 °C 7,8 °C 0,0 km/h (0 Bft)
01.05.2026 00:00 6,7 °C 1,6 °C 10,6 °C 75 % 1030,3 hPa 0,0 l/m² 0,0 km/h (0 Bft) N 0,00 h 0,0 UV-I 0 W/m² 2,6 °C 6,7 °C 0,0 km/h (0 Bft)
01.05.2026 01:00 5,6 °C 0,8 °C 10,6 °C 78 % 1030,3 hPa 0,0 l/m² 0,0 km/h (0 Bft) N 0,00 h 0,0 UV-I 0 W/m² 2,1 °C 5,6 °C 0,0 km/h (0 Bft)
01.05.2026 02:00 5,0 °C 0,5 °C 10,4 °C 80 % 1030,3 hPa 0,0 l/m² 0,0 km/h (0 Bft) N 0,00 h 0,0 UV-I 0 W/m² 1,8 °C 5,0 °C 0,0 km/h (0 Bft)
01.05.2026 03:00 4,1 °C -0,2 °C 10,0 °C 82 % 1030,3 hPa 0,0 l/m² 0,1 km/h (0 Bft) N-NW 0,00 h 0,0 UV-I 0 W/m² 1,2 °C 4,1 °C 0,3 km/h (0 Bft)
01.05.2026 04:00 3,5 °C -0,9 °C 10,0 °C 83 % 1030,5 hPa 0,0 l/m² 0,0 km/h (0 Bft) N 0,00 h 0,0 UV-I 0 W/m² 0,8 °C 3,5 °C 0,0 km/h (0 Bft)
01.05.2026 05:00 2,9 °C -1,2 °C 9,8 °C 84 % 1030,4 hPa 0,0 l/m² 0,0 km/h (0 Bft) N 0,07 h 0,0 UV-I 15 W/m² 0,4 °C 2,9 °C 0,2 km/h (0 Bft)
01.05.2026 06:00 3,2 °C 0,1 °C 9,4 °C 84 % 1030,6 hPa 0,0 l/m² 0,0 km/h (0 Bft) N 0,70 h 0,0 UV-I 66 W/m² 0,8 °C 3,2 °C 0,1 km/h (0 Bft)
01.05.2026 07:00 6,4 °C 4,2 °C 9,4 °C 80 % 1030,7 hPa 0,0 l/m² 0,0 km/h (0 Bft) N 0,00 h 0,6 UV-I 89 W/m² 3,1 °C 6,4 °C 0,2 km/h (0 Bft)
01.05.2026 08:00 10,4 °C 8,7 °C 9,4 °C 69 % 1030,8 hPa 0,0 l/m² 0,2 km/h (0 Bft) SW 0,97 h 1,0 UV-I 432 W/m² 4,9 °C 10,4 °C 1,3 km/h (1 Bft)
01.05.2026 09:00 14,6 °C 13,5 °C 9,4 °C 55 % 1030,7 hPa 0,0 l/m² 1,1 km/h (1 Bft) S-SW 1,00 h 1,7 UV-I 614 W/m² 5,7 °C 14,6 °C 2,6 km/h (1 Bft)
01.05.2026 10:00 17,7 °C 18,7 °C 9,6 °C 50 % 1030,5 hPa 0,0 l/m² 2,3 km/h (1 Bft) O-SO 1,00 h 2,5 UV-I 747 W/m² 7,2 °C 17,7 °C 4,8 km/h (1 Bft)
01.05.2026 11:00 19,4 °C 26,7 °C 10,1 °C 45 % 1030,0 hPa 0,0 l/m² 3,5 km/h (1 Bft) W-SW 1,00 h 3,3 UV-I 811 W/m² 7,3 °C 19,4 °C 6,6 km/h (2 Bft)
01.05.2026 12:00 20,7 °C 29,9 °C 10,7 °C 43 % 1029,5 hPa 0,0 l/m² 4,1 km/h (1 Bft) S-SW 1,00 h 3,9 UV-I 911 W/m² 7,6 °C 20,7 °C 8,0 km/h (2 Bft)
01.05.2026 13:00 21,5 °C 32,6 °C 11,3 °C 42 % 1028,9 hPa 0,0 l/m² 4,6 km/h (1 Bft) O 1,00 h 3,9 UV-I 917 W/m² 8,1 °C 21,5 °C 9,4 km/h (2 Bft)
01.05.2026 14:00 21,9 °C 31,6 °C 11,8 °C 41 % 1028,4 hPa 0,0 l/m² 4,8 km/h (1 Bft) O-NO 1,00 h 3,5 UV-I 846 W/m² 8,1 °C 21,9 °C 8,5 km/h (2 Bft)
01.05.2026 15:00 22,5 °C 35,4 °C 12,2 °C 42 % 1027,7 hPa 0,0 l/m² 4,9 km/h (1 Bft) W 1,00 h 2,7 UV-I 696 W/m² 8,8 °C 22,5 °C 9,3 km/h (2 Bft)
01.05.2026 16:00 22,8 °C 35,7 °C 12,3 °C 41 % 1027,1 hPa 0,0 l/m² 5,4 km/h (1 Bft) W 1,00 h 1,9 UV-I 565 W/m² 8,8 °C 22,8 °C 9,8 km/h (2 Bft)
01.05.2026 17:00 22,4 °C 22,8 °C 12,8 °C 43 % 1026,7 hPa 0,0 l/m² 5,2 km/h (1 Bft) N-NW 1,00 h 1,1 UV-I 424 W/m² 9,0 °C 22,4 °C 9,1 km/h (2 Bft)
01.05.2026 18:00 21,7 °C 21,1 °C 12,8 °C 44 % 1026,1 hPa 0,0 l/m² 4,2 km/h (1 Bft) W 0,13 h 0,6 UV-I 102 W/m² 8,8 °C 21,7 °C 7,5 km/h (2 Bft)
01.05.2026 19:00 20,8 °C 19,2 °C 12,5 °C 46 % 1025,8 hPa 0,0 l/m² 3,3 km/h (1 Bft) W 0,17 h 0,0 UV-I 59 W/m² 8,6 °C 20,8 °C 5,6 km/h (2 Bft)
01.05.2026 20:00 17,0 °C 9,7 °C 12,3 °C 58 % 1025,8 hPa 0,0 l/m² 0,1 km/h (0 Bft) N 0,13 h 0,0 UV-I 15 W/m² 8,6 °C 17,0 °C 0,3 km/h (0 Bft)
01.05.2026 21:00 13,4 °C 6,6 °C 12,2 °C 67 % 1025,8 hPa 0,0 l/m² 0,0 km/h (0 Bft) N 0,00 h 0,0 UV-I 0 W/m² 7,4 °C 13,4 °C 0,0 km/h (0 Bft)
01.05.2026 22:00 11,2 °C 5,0 °C 12,0 °C 74 % 1025,7 hPa 0,0 l/m² 0,0 km/h (0 Bft) N 0,00 h 0,0 UV-I 0 W/m² 6,8 °C 11,2 °C 0,1 km/h (0 Bft)
01.05.2026 23:00 9,7 °C 4,0 °C 11,7 °C 79 % 1025,5 hPa 0,0 l/m² 0,0 km/h (0 Bft) N 0,00 h 0,0 UV-I 0 W/m² 6,2 °C 9,7 °C 0,2 km/h (0 Bft)
02.05.2026 00:00 8,5 °C 3,5 °C 11,7 °C 82 % 1025,5 hPa 0,0 l/m² 0,0 km/h (0 Bft) N 0,00 h 0,0 UV-I 0 W/m² 5,5 °C 8,5 °C 0,2 km/h (0 Bft)
02.05.2026 01:00 7,5 °C 2,7 °C 11,2 °C 83 % 1025,2 hPa 0,0 l/m² 0,0 km/h (0 Bft) N 0,00 h 0,0 UV-I 0 W/m² 4,9 °C 7,5 °C 0,3 km/h (0 Bft)
02.05.2026 02:00 6,7 °C 2,1 °C 11,1 °C 85 % 1025,0 hPa 0,0 l/m² 0,0 km/h (0 Bft) N 0,00 h 0,0 UV-I 0 W/m² 4,3 °C 6,7 °C 0,3 km/h (0 Bft)
02.05.2026 03:00 6,0 °C 1,6 °C 11,1 °C 86 % 1024,6 hPa 0,0 l/m² 0,1 km/h (0 Bft) N 0,00 h 0,0 UV-I 0 W/m² 3,9 °C 6,0 °C 0,9 km/h (0 Bft)
02.05.2026 04:00 5,4 °C 1,2 °C 10,7 °C 87 % 1024,4 hPa 0,0 l/m² 0,0 km/h (0 Bft) N 0,00 h 0,0 UV-I 0 W/m² 3,4 °C 5,4 °C 0,4 km/h (0 Bft)
02.05.2026 05:00 5,0 °C 1,1 °C 10,6 °C 87 % 1024,2 hPa 0,0 l/m² 0,0 km/h (0 Bft) N 0,10 h 0,0 UV-I 17 W/m² 3,0 °C 5,0 °C 0,0 km/h (0 Bft)
02.05.2026 06:00 5,6 °C 2,1 °C 10,6 °C 88 % 1024,0 hPa 0,0 l/m² 0,0 km/h (0 Bft) S 0,63 h 0,0 UV-I 64 W/m² 3,7 °C 5,6 °C 0,1 km/h (0 Bft)
02.05.2026 07:00 9,4 °C 6,8 °C 10,6 °C 84 % 1023,9 hPa 0,0 l/m² 2,0 km/h (1 Bft) S-SW 0,00 h 0,5 UV-I 88 W/m² 6,7 °C 9,4 °C 4,6 km/h (1 Bft)
02.05.2026 08:00 14,1 °C 11,2 °C 10,4 °C 67 % 1023,7 hPa 0,0 l/m² 3,3 km/h (1 Bft) S-SW 0,97 h 1,0 UV-I 428 W/m² 8,0 °C 14,1 °C 6,8 km/h (2 Bft)
02.05.2026 09:00 18,4 °C 16,5 °C 10,6 °C 52 % 1023,2 hPa 0,0 l/m² 7,1 km/h (2 Bft) W-SW 1,00 h 1,7 UV-I 564 W/m² 8,4 °C 18,4 °C 12,6 km/h (3 Bft)
02.05.2026 10:00 21,1 °C 21,3 °C 10,6 °C 49 % 1022,8 hPa 0,0 l/m² 8,4 km/h (2 Bft) W-SW 1,00 h 2,6 UV-I 677 W/m² 9,8 °C 21,1 °C 14,2 km/h (3 Bft)
02.05.2026 11:00 22,7 °C 28,0 °C 11,0 °C 47 % 1022,3 hPa 0,0 l/m² 9,8 km/h (2 Bft) W 1,00 h 3,4 UV-I 769 W/m² 10,7 °C 22,7 °C 16,5 km/h (3 Bft)
02.05.2026 12:00 24,0 °C 31,2 °C 11,6 °C 42 % 1021,6 hPa 0,0 l/m² 9,7 km/h (2 Bft) W-SW 1,00 h 4,0 UV-I 841 W/m² 10,3 °C 24,0 °C 17,0 km/h (3 Bft)
02.05.2026 13:00 24,7 °C 34,1 °C 12,2 °C 38 % 1020,9 hPa 0,0 l/m² 9,7 km/h (2 Bft) W-SW 1,00 h 4,1 UV-I 848 W/m² 9,5 °C 24,7 °C 17,3 km/h (3 Bft)
02.05.2026 14:00 25,3 °C 33,3 °C 12,7 °C 38 % 1020,1 hPa 0,0 l/m² 8,2 km/h (2 Bft) SW 1,00 h 3,6 UV-I 803 W/m² 9,8 °C 25,3 °C 15,7 km/h (3 Bft)
02.05.2026 15:00 25,7 °C 37,3 °C 12,9 °C 37 % 1019,2 hPa 0,0 l/m² 8,8 km/h (2 Bft) W-SW 1,00 h 2,8 UV-I 700 W/m² 9,8 °C 25,7 °C 16,0 km/h (3 Bft)
02.05.2026 16:00 26,0 °C 37,8 °C 13,3 °C 35 % 1018,3 hPa 0,0 l/m² 7,0 km/h (2 Bft) W-SW 1,00 h 1,9 UV-I 568 W/m² 9,3 °C 26,0 °C 12,8 km/h (3 Bft)
02.05.2026 17:00 26,0 °C 25,4 °C 13,3 °C 33 % 1017,3 hPa 0,0 l/m² 7,5 km/h (2 Bft) W-SW 1,00 h 1,1 UV-I 431 W/m² 8,6 °C 26,0 °C 13,8 km/h (3 Bft)
02.05.2026 18:00 25,6 °C 23,8 °C 13,3 °C 33 % 1016,6 hPa 0,0 l/m² 7,1 km/h (2 Bft) SW 0,17 h 0,6 UV-I 108 W/m² 8,3 °C 25,6 °C 13,4 km/h (3 Bft)
02.05.2026 19:00 24,0 °C 20,4 °C 13,3 °C 38 % 1016,1 hPa 0,0 l/m² 2,4 km/h (1 Bft) S-SW 0,00 h 0,0 UV-I 49 W/m² 8,8 °C 24,0 °C 4,7 km/h (1 Bft)
02.05.2026 20:00 18,8 °C 11,6 °C 13,3 °C 57 % 1016,0 hPa 0,0 l/m² 0,0 km/h (0 Bft) N 0,20 h 0,0 UV-I 20 W/m² 10,0 °C 18,8 °C 0,2 km/h (0 Bft)
02.05.2026 21:00 15,5 °C 8,8 °C 12,8 °C 63 % 1016,0 hPa 0,0 l/m² 0,8 km/h (0 Bft) S-SW 0,00 h 0,0 UV-I 0 W/m² 8,6 °C 15,5 °C 1,5 km/h (1 Bft)
02.05.2026 22:00 13,5 °C 7,3 °C 12,8 °C 70 % 1015,8 hPa 0,0 l/m² 0,0 km/h (0 Bft) N 0,00 h 0,0 UV-I 0 W/m² 8,1 °C 13,5 °C 0,1 km/h (0 Bft)
02.05.2026 23:00 12,2 °C 6,7 °C 12,6 °C 75 % 1015,5 hPa 0,0 l/m² 0,0 km/h (0 Bft) N 0,00 h 0,0 UV-I 0 W/m² 7,8 °C 12,2 °C 0,0 km/h (0 Bft)
03.05.2026 00:00 11,1 °C 6,0 °C 12,2 °C 78 % 1015,3 hPa 0,0 l/m² 0,1 km/h (0 Bft) N 0,00 h 0,0 UV-I 0 W/m² 7,4 °C 11,1 °C 0,4 km/h (0 Bft)
03.05.2026 01:00 10,2 °C 5,2 °C 12,2 °C 80 % 1015,0 hPa 0,0 l/m² 0,1 km/h (0 Bft) N 0,00 h 0,0 UV-I 0 W/m² 6,9 °C 10,2 °C 0,2 km/h (0 Bft)
03.05.2026 02:00 9,5 °C 4,4 °C 11,9 °C 82 % 1014,6 hPa 0,0 l/m² 0,2 km/h (0 Bft) N 0,00 h 0,0 UV-I 0 W/m² 6,5 °C 9,5 °C 0,9 km/h (0 Bft)
03.05.2026 03:00 8,8 °C 3,7 °C 11,7 °C 83 % 1014,4 hPa 0,0 l/m² 0,4 km/h (0 Bft) S-SW 0,00 h 0,0 UV-I 0 W/m² 6,1 °C 8,8 °C 1,1 km/h (1 Bft)
03.05.2026 04:00 8,5 °C 3,8 °C 11,7 °C 84 % 1014,3 hPa 0,0 l/m² 0,6 km/h (0 Bft) SW 0,00 h 0,0 UV-I 0 W/m² 6,0 °C 8,5 °C 1,9 km/h (1 Bft)
03.05.2026 05:00 8,2 °C 3,4 °C 11,5 °C 85 % 1014,3 hPa 0,0 l/m² 0,0 km/h (0 Bft) N 0,13 h 0,0 UV-I 21 W/m² 5,8 °C 8,2 °C 0,2 km/h (0 Bft)
03.05.2026 06:00 8,8 °C 5,9 °C 11,1 °C 84 % 1014,3 hPa 0,0 l/m² 1,1 km/h (1 Bft) W-SW 0,57 h 0,0 UV-I 62 W/m² 6,3 °C 8,8 °C 2,5 km/h (1 Bft)
03.05.2026 07:00 12,3 °C 9,6 °C 11,1 °C 73 % 1014,2 hPa 0,0 l/m² 3,1 km/h (1 Bft) SW 0,00 h 0,5 UV-I 78 W/m² 7,5 °C 12,3 °C 5,9 km/h (2 Bft)
03.05.2026 08:00 16,4 °C 14,2 °C 11,1 °C 60 % 1014,1 hPa 0,0 l/m² 2,9 km/h (1 Bft) S-SW 0,97 h 1,0 UV-I 416 W/m² 8,6 °C 16,4 °C 5,9 km/h (2 Bft)
03.05.2026 09:00 20,0 °C 18,2 °C 11,2 °C 54 % 1014,0 hPa 0,0 l/m² 4,0 km/h (1 Bft) S-SW 1,00 h 1,6 UV-I 559 W/m² 10,3 °C 20,0 °C 7,9 km/h (2 Bft)
03.05.2026 10:00 23,6 °C 23,1 °C 11,6 °C 46 % 1013,8 hPa 0,0 l/m² 6,9 km/h (2 Bft) W-SW 1,00 h 2,5 UV-I 678 W/m² 11,2 °C 23,6 °C 12,0 km/h (2 Bft)
03.05.2026 11:00 25,5 °C 31,0 °C 12,0 °C 42 % 1013,4 hPa 0,0 l/m² 7,5 km/h (2 Bft) W-SW 1,00 h 3,3 UV-I 757 W/m² 11,8 °C 25,5 °C 13,1 km/h (3 Bft)
03.05.2026 12:00 27,0 °C 34,7 °C 12,6 °C 39 % 1012,9 hPa 0,0 l/m² 8,9 km/h (2 Bft) W-SW 1,00 h 3,9 UV-I 869 W/m² 11,7 °C 27,0 °C 16,1 km/h (3 Bft)
03.05.2026 13:00 27,6 °C 35,8 °C 13,1 °C 37 % 1012,3 hPa 0,0 l/m² 8,9 km/h (2 Bft) W 0,97 h 3,8 UV-I 812 W/m² 11,6 °C 27,6 °C 16,1 km/h (3 Bft)
03.05.2026 14:00 28,0 °C 34,6 °C 13,5 °C 34 % 1011,8 hPa 0,0 l/m² 7,9 km/h (2 Bft) W-SW 1,00 h 3,4 UV-I 755 W/m² 10,8 °C 28,0 °C 13,9 km/h (3 Bft)
03.05.2026 15:00 27,8 °C 34,9 °C 13,9 °C 34 % 1011,3 hPa 0,0 l/m² 7,3 km/h (2 Bft) W 0,90 h 2,2 UV-I 502 W/m² 10,6 °C 27,8 °C 13,5 km/h (3 Bft)
03.05.2026 16:00 27,8 °C 34,6 °C 13,9 °C 33 % 1010,6 hPa 0,0 l/m² 6,3 km/h (2 Bft) W-SW 0,93 h 1,6 UV-I 455 W/m² 10,2 °C 27,8 °C 11,3 km/h (2 Bft)
03.05.2026 17:00 26,6 °C 26,4 °C 14,1 °C 35 % 1010,1 hPa 0,0 l/m² 5,1 km/h (1 Bft) W-NW 0,27 h 0,7 UV-I 230 W/m² 9,9 °C 26,6 °C 8,8 km/h (2 Bft)
03.05.2026 18:00 26,4 °C 26,6 °C 14,0 °C 35 % 1010,0 hPa 0,0 l/m² 6,8 km/h (2 Bft) NW 0,93 h 0,6 UV-I 193 W/m² 9,8 °C 26,4 °C 11,4 km/h (2 Bft)
03.05.2026 19:00 24,5 °C 21,4 °C 14,1 °C 40 % 1010,0 hPa 0,0 l/m² 4,9 km/h (1 Bft) NW 0,67 h 0,0 UV-I 110 W/m² 10,1 °C 24,5 °C 9,7 km/h (2 Bft)
03.05.2026 20:00 22,2 °C 17,3 °C 14,0 °C 48 % 1010,4 hPa 0,0 l/m² 4,5 km/h (1 Bft) N-NW 0,10 h 0,0 UV-I 15 W/m² 10,8 °C 22,2 °C 7,6 km/h (2 Bft)
03.05.2026 21:00 19,2 °C 13,3 °C 13,9 °C 57 % 1010,6 hPa 0,0 l/m² 0,5 km/h (0 Bft) NW 0,00 h 0,0 UV-I 0 W/m² 10,4 °C 19,2 °C 1,3 km/h (1 Bft)
03.05.2026 22:00 18,1 °C 13,3 °C 13,9 °C 60 % 1010,8 hPa 0,0 l/m² 1,2 km/h (1 Bft) NW 0,00 h 0,0 UV-I 0 W/m² 10,1 °C 18,1 °C 2,5 km/h (1 Bft)
03.05.2026 23:00 20,4 °C 16,3 °C 13,7 °C 47 % 1011,1 hPa 0,0 l/m² 4,5 km/h (1 Bft) NW 0,00 h 0,0 UV-I 0 W/m² 8,5 °C 20,4 °C 8,5 km/h (2 Bft)
Min-Datum _ 30.04.26 30.04.26 30.04.26 28.04.26 03.05.26 - 03.05.26 - - - - 30.04.26 30.04.26 03.05.26
_ Min-Zeit 05:58 05:00 11:00 18:08 19:00 - 22:00 - - - - 05:26 06:00 22:00
Minimum _ -1,2 °C -5,0 °C 8,9 °C 29 % 1009,9 hPa - 0,0 km/h (0 Bft) - - - - -3,6 °C -1,1 °C 0,0 km/h (0 Bft)
Max-Datum _ 03.05.26 03.05.26 03.05.26 02.05.26 30.04.26 03.05.26 29.04.26 - 03.05.26 03.05.26 01.05.26 03.05.26 03.05.26 28.04.26
_ Max-Zeit 14:30 15:00 20:00 07:00 08:00 23:00 16:56 - 19:13 13:18 12:54 11:36 14:30 16:56
Maximum _ 28,6 °C 40,0 °C 14,4 °C 88 % 1034,3 hPa 0,0 l/m² 20,0 km/h
O-SO (4 Bft)
- 0,05 h 4,3 UV-I 1013 W/m² 13,0 °C 28,5 °C 37,0 km/h
O (5 Bft)
Durchschnitt _ 12,5 °C 12,3 °C 11,0 °C 57 % 1024,8 hPa #0,0 l/m² 3,8 km/h (1 Bft) O-SO #83:14 h 2,1 UV-I 446 W/m² 3,4 °C 12,5 °C 7,3 km/h (2 Bft)